createdAt,value
2023-05-13T00:00:20.307Z,93.05
2023-05-13T00:02:23.605Z,92.80
2023-05-13T00:04:28.107Z,92.88
2023-05-13T00:06:32.267Z,92.76
2023-05-13T00:08:35.464Z,93.34
2023-05-13T00:10:38.535Z,93.41
2023-05-13T00:12:41.533Z,92.55
2023-05-13T00:14:44.530Z,92.42
2023-05-13T00:16:47.644Z,92.81
2023-05-13T00:18:51.272Z,92.28
2023-05-13T00:20:56.287Z,92.57
2023-05-13T00:22:59.356Z,91.92
2023-05-13T00:25:02.425Z,91.95
2023-05-13T00:27:05.955Z,91.86
2023-05-13T00:29:09.177Z,92.89
2023-05-13T00:31:12.624Z,92.21
2023-05-13T00:33:15.810Z,92.66
2023-05-13T00:35:18.952Z,91.80
2023-05-13T00:37:23.512Z,92.41
2023-05-13T00:39:27.251Z,91.34
2023-05-13T00:41:30.281Z,92.12
2023-05-13T00:43:33.329Z,91.36
2023-05-13T00:45:37.979Z,92.18
2023-05-13T00:47:41.598Z,92.45
2023-05-13T00:49:45.020Z,90.98
2023-05-13T00:51:48.077Z,91.93
2023-05-13T00:53:52.698Z,91.33
2023-05-13T00:55:56.073Z,91.91
2023-05-13T00:57:59.115Z,92.12
2023-05-13T01:00:02.760Z,90.96
2023-05-13T01:02:18.006Z,91.51
2023-05-13T01:04:28.355Z,91.26
2023-05-13T01:06:36.568Z,91.14
2023-05-13T01:08:45.031Z,91.43
2023-05-13T01:10:52.674Z,92.94
2023-05-13T01:13:00.206Z,92.18
2023-05-13T01:15:06.992Z,91.32
2023-05-13T01:17:13.397Z,91.90
2023-05-13T01:19:36.895Z,92.67
2023-05-13T01:21:41.353Z,93.09
2023-05-13T01:23:44.431Z,92.55
2023-05-13T01:25:47.851Z,92.32
2023-05-13T01:27:51.684Z,93.31
2023-05-13T01:29:56.753Z,91.95
2023-05-13T01:32:04.695Z,92.71
2023-05-13T01:34:10.432Z,93.35
2023-05-13T01:36:14.370Z,92.43
2023-05-13T01:38:20.017Z,92.02
2023-05-13T01:40:32.895Z,92.34
2023-05-13T01:42:41.922Z,91.03
2023-05-13T01:44:45.154Z,91.94
2023-05-13T01:46:49.089Z,90.27
2023-05-13T01:48:53.334Z,91.63
2023-05-13T01:50:57.112Z,90.29
2023-05-13T01:53:00.215Z,91.61
2023-05-13T01:55:05.065Z,91.28
2023-05-13T01:57:09.184Z,92.64
2023-05-13T01:59:12.421Z,92.69
2023-05-13T02:01:15.469Z,92.26
2023-05-13T02:03:18.960Z,90.93
2023-05-13T02:05:23.220Z,90.98
2023-05-13T02:07:26.931Z,91.94
2023-05-13T02:09:30.103Z,90.69
2023-05-13T02:11:35.767Z,91.30
2023-05-13T02:13:38.850Z,90.82
2023-05-13T02:15:42.020Z,90.89
2023-05-13T02:17:45.688Z,90.96
2023-05-13T02:19:49.665Z,91.51
2023-05-13T02:21:52.764Z,90.73
2023-05-13T02:23:56.045Z,90.95
2023-05-13T02:25:59.141Z,90.65
2023-05-13T02:28:05.593Z,90.60
2023-05-13T02:30:09.659Z,90.83
2023-05-13T02:32:12.802Z,91.91
2023-05-13T02:34:15.891Z,91.01
2023-05-13T02:36:18.884Z,90.43
2023-05-13T02:38:22.325Z,90.29
2023-05-13T02:40:25.721Z,91.49
2023-05-13T02:42:28.750Z,90.49
2023-05-13T02:44:33.325Z,89.91
2023-05-13T02:46:37.658Z,91.17
2023-05-13T02:48:41.352Z,89.88
2023-05-13T02:50:44.391Z,90.04
2023-05-13T02:52:47.781Z,90.95
2023-05-13T02:54:51.180Z,91.22
2023-05-13T02:56:54.405Z,89.65
2023-05-13T02:58:57.485Z,89.65
2023-05-13T03:01:02.006Z,91.01
2023-05-13T03:03:05.319Z,91.05
2023-05-13T03:05:09.285Z,90.45
2023-05-13T03:07:12.288Z,91.05
2023-05-13T03:09:15.402Z,89.80
2023-05-13T03:11:18.468Z,90.52
2023-05-13T03:13:21.534Z,90.76
2023-05-13T03:15:24.771Z,91.11
2023-05-13T03:17:30.962Z,90.17
2023-05-13T03:19:35.348Z,90.03
2023-05-13T03:21:38.453Z,89.26
2023-05-13T03:23:43.988Z,90.66
2023-05-13T03:25:47.124Z,89.09
2023-05-13T03:27:50.530Z,89.62
2023-05-13T03:29:56.403Z,89.09
2023-05-13T03:32:00.938Z,89.45
2023-05-13T03:34:05.649Z,89.24
2023-05-13T03:36:10.021Z,88.86
2023-05-13T03:38:13.335Z,90.80
2023-05-13T03:40:20.997Z,91.12
2023-05-13T03:42:26.579Z,89.18
2023-05-13T03:44:31.766Z,89.84
2023-05-13T03:46:35.200Z,90.51
2023-05-13T03:48:38.378Z,90.14
2023-05-13T03:50:43.070Z,88.12
2023-05-13T03:52:47.115Z,90.25
2023-05-13T03:54:51.979Z,88.99
2023-05-13T03:56:55.179Z,89.93
2023-05-13T03:58:58.221Z,89.88
2023-05-13T04:01:04.216Z,87.68
2023-05-13T04:03:07.361Z,89.54
2023-05-13T04:05:11.730Z,90.30
2023-05-13T04:07:16.196Z,90.04
2023-05-13T04:09:19.275Z,89.97
2023-05-13T04:11:22.597Z,88.82
2023-05-13T04:13:25.708Z,89.56
2023-05-13T04:15:28.792Z,90.16
2023-05-13T04:17:31.912Z,90.06
2023-05-13T04:19:35.016Z,89.43
2023-05-13T04:21:38.066Z,90.03
2023-05-13T04:23:43.073Z,89.44
2023-05-13T04:25:51.994Z,90.95
2023-05-13T04:27:55.066Z,89.04
2023-05-13T04:30:07.596Z,88.53
2023-05-13T04:32:15.989Z,88.78
2023-05-13T04:34:19.669Z,90.52
2023-05-13T04:36:24.791Z,88.97
2023-05-13T04:38:29.161Z,88.36
2023-05-13T04:40:33.847Z,88.72
2023-05-13T04:42:44.332Z,89.79
2023-05-13T04:44:47.511Z,91.16
2023-05-13T04:46:50.988Z,89.69
2023-05-13T04:48:54.157Z,89.09
2023-05-13T04:50:58.454Z,90.19
2023-05-13T04:53:01.995Z,90.63
2023-05-13T04:55:06.179Z,89.83
2023-05-13T04:57:10.977Z,89.05
2023-05-13T04:59:14.014Z,89.11
2023-05-13T05:01:17.446Z,88.29
2023-05-13T05:03:21.021Z,88.86
2023-05-13T05:05:24.210Z,88.83
2023-05-13T05:07:28.478Z,90.04
2023-05-13T05:09:31.543Z,89.43
2023-05-13T05:11:35.742Z,88.38
2023-05-13T05:13:40.179Z,89.01
2023-05-13T05:15:45.579Z,88.92
2023-05-13T05:17:50.399Z,87.66
2023-05-13T05:19:53.601Z,88.44
2023-05-13T05:21:59.140Z,88.48
2023-05-13T05:24:02.914Z,88.40
2023-05-13T05:26:11.633Z,87.86
2023-05-13T05:28:16.539Z,88.98
2023-05-13T05:30:22.186Z,88.83
2023-05-13T05:32:32.762Z,88.78
2023-05-13T05:34:36.501Z,87.62
2023-05-13T05:36:40.036Z,89.15
2023-05-13T05:38:43.140Z,88.92
2023-05-13T05:40:47.774Z,87.24
2023-05-13T05:42:51.108Z,86.44
2023-05-13T05:44:54.166Z,86.74
2023-05-13T05:46:58.702Z,88.36
2023-05-13T05:49:03.613Z,87.63
2023-05-13T05:51:09.319Z,87.92
2023-05-13T05:53:12.918Z,87.42
2023-05-13T05:55:19.287Z,88.20
2023-05-13T05:57:22.397Z,88.25
2023-05-13T05:59:25.460Z,87.69
2023-05-13T06:01:29.741Z,87.45
2023-05-13T06:03:36.591Z,87.17
2023-05-13T06:05:40.585Z,86.85
2023-05-13T06:07:43.678Z,86.10
2023-05-13T06:09:46.785Z,87.41
2023-05-13T06:11:50.348Z,86.53
2023-05-13T06:13:54.279Z,87.33
2023-05-13T06:15:58.038Z,86.81
2023-05-13T06:18:02.063Z,86.57
2023-05-13T06:20:07.910Z,87.58
2023-05-13T06:22:12.429Z,87.38
2023-05-13T06:24:15.549Z,86.97
2023-05-13T06:26:18.611Z,87.22
2023-05-13T06:28:21.756Z,87.69
2023-05-13T06:30:27.006Z,86.95
2023-05-13T06:32:30.117Z,86.60
2023-05-13T06:34:33.290Z,87.25
2023-05-13T06:36:37.765Z,86.60
2023-05-13T06:38:43.620Z,86.67
2023-05-13T06:40:56.846Z,86.25
2023-05-13T06:43:07.404Z,86.86
2023-05-13T06:45:14.534Z,85.36
2023-05-13T06:47:18.696Z,85.98
2023-05-13T06:49:21.861Z,86.21
2023-05-13T06:51:26.314Z,86.30
2023-05-13T06:53:31.813Z,86.75
2023-05-13T06:55:41.337Z,86.45
2023-05-13T06:57:46.671Z,86.29
2023-05-13T06:59:49.762Z,86.40
2023-05-13T07:01:52.919Z,85.91
2023-05-13T07:03:56.097Z,86.46
2023-05-13T07:05:59.181Z,86.36
2023-05-13T07:08:06.666Z,86.52
2023-05-13T07:10:12.046Z,86.47
2023-05-13T07:12:15.301Z,86.41
2023-05-13T07:14:18.496Z,86.49
2023-05-13T07:16:21.782Z,87.22
2023-05-13T07:18:24.964Z,87.31
2023-05-13T07:20:28.102Z,87.04
2023-05-13T07:22:31.185Z,87.38
2023-05-13T07:24:34.282Z,87.05
2023-05-13T07:26:38.951Z,87.73
2023-05-13T07:28:42.074Z,86.65
2023-05-13T07:30:45.137Z,86.67
2023-05-13T07:32:48.809Z,87.01
2023-05-13T07:34:54.398Z,86.46
2023-05-13T07:36:58.019Z,86.98
2023-05-13T07:39:02.204Z,86.92
2023-05-13T07:41:05.575Z,87.23
2023-05-13T07:43:10.613Z,86.21
2023-05-13T07:45:13.863Z,86.67
2023-05-13T07:47:17.094Z,87.39
2023-05-13T07:49:20.369Z,86.71
2023-05-13T07:51:23.474Z,86.94
2023-05-13T07:53:26.724Z,86.51
2023-05-13T07:55:29.844Z,86.21
2023-05-13T07:57:33.036Z,85.81
2023-05-13T07:59:38.835Z,86.81
2023-05-13T08:01:43.654Z,85.67
2023-05-13T08:03:46.908Z,85.24
2023-05-13T08:05:50.334Z,85.54
2023-05-13T08:07:56.252Z,85.71
2023-05-13T08:09:59.352Z,84.60
2023-05-13T08:12:02.542Z,83.56
2023-05-13T08:14:06.229Z,84.52
2023-05-13T08:16:11.042Z,84.00
2023-05-13T08:18:14.126Z,83.25
2023-05-13T08:20:17.280Z,84.94
2023-05-13T08:22:20.437Z,84.27
2023-05-13T08:24:23.547Z,84.18
2023-05-13T08:26:26.880Z,83.41
2023-05-13T08:28:32.738Z,84.22
2023-05-13T08:30:35.855Z,83.82
2023-05-13T08:32:40.442Z,84.93
2023-05-13T08:34:43.599Z,82.79
2023-05-13T08:36:46.647Z,82.72
2023-05-13T08:38:49.777Z,84.61
2023-05-13T08:40:52.915Z,83.45
2023-05-13T08:42:57.172Z,84.16
2023-05-13T08:45:02.047Z,82.96
2023-05-13T08:47:13.780Z,82.71
2023-05-13T08:49:21.850Z,80.93
2023-05-13T08:51:25.058Z,81.26
2023-05-13T08:53:28.239Z,80.70
2023-05-13T08:55:31.499Z,81.49
2023-05-13T08:57:34.574Z,82.17
2023-05-13T08:59:37.707Z,81.83
2023-05-13T09:01:40.836Z,81.69
2023-05-13T09:03:53.753Z,82.01
2023-05-13T09:05:58.252Z,83.65
2023-05-13T09:08:04.117Z,82.94
2023-05-13T09:10:08.977Z,81.61
2023-05-13T09:12:12.080Z,82.33
2023-05-13T09:14:15.154Z,83.08
2023-05-13T09:16:18.364Z,82.81
2023-05-13T09:18:22.906Z,82.93
2023-05-13T09:20:28.974Z,81.27
2023-05-13T09:22:33.568Z,82.51
2023-05-13T09:24:36.798Z,82.36
2023-05-13T09:26:40.599Z,82.33
2023-05-13T09:28:43.698Z,82.36
2023-05-13T09:30:55.718Z,80.20
2023-05-13T09:33:12.117Z,81.41
2023-05-13T09:35:20.105Z,82.07
2023-05-13T09:37:26.206Z,80.59
2023-05-13T09:39:33.612Z,82.83
2023-05-13T09:41:37.337Z,81.56
2023-05-13T09:43:40.883Z,82.69
2023-05-13T09:45:44.155Z,82.91
2023-05-13T09:47:52.156Z,82.27
2023-05-13T09:49:56.843Z,82.64
2023-05-13T09:51:59.961Z,82.47
2023-05-13T09:54:06.698Z,81.33
2023-05-13T09:56:11.216Z,81.76
2023-05-13T09:58:14.545Z,81.29
2023-05-13T10:00:31.634Z,80.60
2023-05-13T10:02:35.760Z,81.77
2023-05-13T10:04:40.699Z,81.93
2023-05-13T10:06:44.150Z,81.37
2023-05-13T10:08:48.514Z,82.63
2023-05-13T10:10:55.556Z,81.86
2023-05-13T10:13:05.678Z,83.22
2023-05-13T10:15:10.614Z,82.63
2023-05-13T10:17:13.800Z,81.88
2023-05-13T10:19:17.637Z,84.14
2023-05-13T10:21:23.851Z,84.72
2023-05-13T10:23:34.835Z,84.39
2023-05-13T10:25:38.916Z,84.82
2023-05-13T10:27:43.625Z,86.83
2023-05-13T10:29:48.562Z,87.01
2023-05-13T10:31:52.117Z,85.52
2023-05-13T10:33:55.389Z,85.41
2023-05-13T10:36:07.005Z,85.13
2023-05-13T10:38:20.762Z,85.25
2023-05-13T10:40:33.173Z,85.36
2023-05-13T10:42:42.813Z,84.46
2023-05-13T10:44:46.146Z,85.95
2023-05-13T10:46:53.682Z,86.00
2023-05-13T10:48:58.308Z,84.75
2023-05-13T10:51:03.987Z,84.61
2023-05-13T10:53:10.066Z,84.47
2023-05-13T10:55:17.815Z,82.78
2023-05-13T10:57:29.467Z,82.48
2023-05-13T10:59:34.023Z,83.37
2023-05-13T11:01:39.281Z,82.47
2023-05-13T11:03:52.388Z,83.51
2023-05-13T11:06:16.775Z,85.07
2023-05-13T11:08:37.646Z,83.87
2023-05-13T11:10:41.949Z,82.27
2023-05-13T11:13:09.058Z,83.01
2023-05-13T11:15:22.652Z,85.22
2023-05-13T11:17:25.946Z,83.63
2023-05-13T11:19:31.208Z,83.52
2023-05-13T11:21:39.653Z,83.77
2023-05-13T11:23:53.929Z,82.88
2023-05-13T11:26:16.185Z,81.39
2023-05-13T11:28:19.427Z,82.08
2023-05-13T11:30:24.437Z,80.82
2023-05-13T11:32:53.653Z,81.21
2023-05-13T11:34:58.295Z,82.56
2023-05-13T11:37:11.236Z,80.02
2023-05-13T11:39:18.855Z,80.74
2023-05-13T11:41:23.165Z,79.60
2023-05-13T11:43:26.267Z,80.26
2023-05-13T11:45:30.786Z,81.06
2023-05-13T11:47:34.029Z,80.95
2023-05-13T11:49:41.363Z,81.18
2023-05-13T11:51:46.031Z,80.87
2023-05-13T11:53:49.108Z,79.02
2023-05-13T11:55:52.316Z,78.73
2023-05-13T11:57:55.854Z,79.84
2023-05-13T12:00:01.824Z,78.43
2023-05-13T12:02:05.525Z,79.66
2023-05-13T12:04:08.624Z,79.21
2023-05-13T12:06:11.825Z,80.24
2023-05-13T12:08:16.291Z,80.24
2023-05-13T12:10:19.644Z,78.48
2023-05-13T12:12:22.933Z,78.91
2023-05-13T12:14:27.903Z,80.59
2023-05-13T12:16:31.293Z,78.73
2023-05-13T12:18:34.740Z,79.29
2023-05-13T12:20:39.093Z,79.67
2023-05-13T12:22:53.370Z,79.39
2023-05-13T12:25:01.034Z,77.83
2023-05-13T12:27:10.116Z,76.74
2023-05-13T12:29:14.640Z,77.92
2023-05-13T12:31:18.469Z,76.95
2023-05-13T12:33:23.156Z,77.12
2023-05-13T12:35:26.236Z,78.27
2023-05-13T12:37:29.340Z,78.41
2023-05-13T12:39:32.413Z,78.34
2023-05-13T12:41:37.929Z,78.79
2023-05-13T12:43:42.820Z,77.93
2023-05-13T12:45:47.189Z,77.69
2023-05-13T12:47:50.850Z,78.58
2023-05-13T12:49:54.381Z,77.74
2023-05-13T12:51:57.538Z,77.22
2023-05-13T12:54:00.905Z,77.35
2023-05-13T12:56:04.083Z,80.27
2023-05-13T12:58:11.863Z,79.23
2023-05-13T13:00:15.997Z,78.80
2023-05-13T13:02:19.068Z,78.03
2023-05-13T13:04:22.173Z,80.01
2023-05-13T13:06:25.363Z,79.19
2023-05-13T13:08:30.592Z,78.30
2023-05-13T13:10:34.174Z,79.57
2023-05-13T13:12:37.301Z,80.16
2023-05-13T13:14:42.659Z,79.03
2023-05-13T13:16:46.838Z,77.46
2023-05-13T13:18:55.706Z,79.86
2023-05-13T13:20:58.999Z,79.95
2023-05-13T13:23:02.123Z,77.75
2023-05-13T13:25:06.521Z,77.57
2023-05-13T13:27:12.563Z,77.91
2023-05-13T13:29:15.692Z,78.36
2023-05-13T13:31:20.074Z,78.28
2023-05-13T13:33:23.176Z,77.66
2023-05-13T13:35:26.337Z,76.96
2023-05-13T13:37:29.424Z,77.95
2023-05-13T13:39:33.465Z,77.32
2023-05-13T13:41:36.480Z,75.37
2023-05-13T13:43:42.017Z,76.62
2023-05-13T13:45:45.146Z,78.41
2023-05-13T13:47:49.662Z,77.75
2023-05-13T13:49:52.717Z,79.08
2023-05-13T13:51:56.394Z,77.88
2023-05-13T13:54:05.019Z,77.83
2023-05-13T13:56:08.276Z,77.81
2023-05-13T13:58:11.402Z,76.60
2023-05-13T14:00:15.551Z,77.51
2023-05-13T14:02:18.674Z,76.98
2023-05-13T14:04:23.713Z,76.47
2023-05-13T14:06:29.208Z,77.08
2023-05-13T14:08:32.304Z,76.13
2023-05-13T14:10:35.583Z,74.19
2023-05-13T14:12:39.323Z,74.19
2023-05-13T14:14:42.378Z,75.24
2023-05-13T14:16:45.613Z,75.67
2023-05-13T14:18:48.818Z,75.61
2023-05-13T14:20:53.327Z,74.15
2023-05-13T14:22:56.637Z,75.77
2023-05-13T14:25:00.210Z,75.51
2023-05-13T14:27:03.350Z,75.25
2023-05-13T14:29:06.539Z,73.85
2023-05-13T14:31:09.596Z,74.77
2023-05-13T14:33:12.774Z,75.87
2023-05-13T14:35:17.069Z,75.64
2023-05-13T14:37:21.662Z,76.27
2023-05-13T14:39:24.808Z,77.24
2023-05-13T14:41:29.502Z,76.76
2023-05-13T14:43:32.691Z,76.27
2023-05-13T14:45:36.521Z,77.36
2023-05-13T14:47:42.522Z,76.89
2023-05-13T14:49:45.633Z,77.46
2023-05-13T14:51:48.807Z,76.07
2023-05-13T14:53:53.286Z,76.08
2023-05-13T14:55:56.562Z,76.30
2023-05-13T14:58:03.564Z,77.29
2023-05-13T15:00:08.638Z,77.69
2023-05-13T15:02:13.757Z,77.33
2023-05-13T15:04:16.970Z,77.52
2023-05-13T15:06:20.486Z,76.73
2023-05-13T15:08:23.650Z,77.09
2023-05-13T15:10:28.149Z,77.51
2023-05-13T15:12:31.321Z,78.58
2023-05-13T15:14:34.442Z,77.75
2023-05-13T15:16:37.937Z,78.73
2023-05-13T15:18:41.159Z,79.42
2023-05-13T15:20:45.367Z,79.95
2023-05-13T15:22:48.425Z,78.19
2023-05-13T15:24:51.490Z,79.19
2023-05-13T15:26:55.979Z,79.38
2023-05-13T15:28:59.216Z,80.26
2023-05-13T15:31:02.525Z,80.05
2023-05-13T15:33:05.816Z,79.92
2023-05-13T15:35:09.746Z,79.41
2023-05-13T15:37:12.912Z,78.53
2023-05-13T15:39:17.180Z,78.27
2023-05-13T15:41:20.323Z,78.47
2023-05-13T15:43:24.924Z,79.09
2023-05-13T15:45:30.742Z,79.24
2023-05-13T15:47:33.971Z,78.75
2023-05-13T15:49:37.386Z,80.17
2023-05-13T15:51:40.940Z,79.57
2023-05-13T15:53:44.052Z,78.96
2023-05-13T15:55:49.797Z,79.14
2023-05-13T15:57:52.916Z,78.18
2023-05-13T15:59:57.400Z,77.62
2023-05-13T16:02:00.511Z,77.76
2023-05-13T16:04:03.758Z,78.62
2023-05-13T16:06:07.261Z,78.58
2023-05-13T16:08:10.323Z,78.95
2023-05-13T16:10:13.509Z,78.51
2023-05-13T16:12:16.592Z,78.09
2023-05-13T16:14:19.755Z,79.35
2023-05-13T16:16:24.814Z,79.24
2023-05-13T16:18:27.951Z,79.00
2023-05-13T16:20:31.033Z,78.88
2023-05-13T16:22:37.785Z,77.46
2023-05-13T16:24:41.120Z,79.23
2023-05-13T16:26:44.505Z,77.64
2023-05-13T16:28:47.643Z,79.04
2023-05-13T16:30:51.340Z,78.77
2023-05-13T16:32:56.032Z,79.17
2023-05-13T16:35:01.327Z,79.10
2023-05-13T16:37:04.862Z,78.53
2023-05-13T16:39:08.031Z,78.84
2023-05-13T16:41:11.684Z,79.95
2023-05-13T16:43:14.727Z,79.65
2023-05-13T16:45:18.426Z,79.69
2023-05-13T16:47:21.917Z,79.30
2023-05-13T16:49:26.381Z,79.57
2023-05-13T16:51:29.488Z,80.41
2023-05-13T16:53:32.558Z,81.42
2023-05-13T16:55:36.407Z,79.71
2023-05-13T16:57:42.057Z,80.27
2023-05-13T16:59:50.530Z,80.58
2023-05-13T17:01:56.339Z,80.07
2023-05-13T17:03:59.471Z,80.24
2023-05-13T17:06:04.174Z,79.56
2023-05-13T17:08:10.313Z,79.89
2023-05-13T17:10:13.399Z,80.10
2023-05-13T17:12:17.026Z,79.83
2023-05-13T17:14:20.215Z,80.96
2023-05-13T17:16:26.208Z,80.10
2023-05-13T17:18:29.284Z,80.89
2023-05-13T17:20:32.385Z,80.45
2023-05-13T17:22:36.830Z,80.44
2023-05-13T17:24:40.583Z,80.47
2023-05-13T17:26:43.733Z,81.47
2023-05-13T17:28:46.920Z,81.77
2023-05-13T17:30:53.006Z,80.51
2023-05-13T17:32:56.361Z,80.66
2023-05-13T17:34:59.938Z,80.53
2023-05-13T17:37:03.004Z,80.24
2023-05-13T17:39:07.546Z,80.54
2023-05-13T17:41:10.615Z,80.35
2023-05-13T17:43:13.677Z,80.99
2023-05-13T17:45:16.863Z,80.31
2023-05-13T17:47:21.718Z,79.95
2023-05-13T17:49:24.896Z,80.99
2023-05-13T17:51:27.963Z,81.18
2023-05-13T17:53:32.922Z,82.03
2023-05-13T17:55:39.161Z,82.37
2023-05-13T17:57:42.225Z,82.58
2023-05-13T17:59:45.268Z,82.82
2023-05-13T18:01:48.357Z,82.20
2023-05-13T18:03:51.563Z,82.79
2023-05-13T18:05:54.892Z,81.99
2023-05-13T18:07:58.102Z,81.66
2023-05-13T18:10:01.202Z,81.02
2023-05-13T18:12:08.649Z,81.19
2023-05-13T18:14:11.733Z,81.14
2023-05-13T18:16:15.744Z,82.85
2023-05-13T18:18:20.343Z,82.63
2023-05-13T18:20:23.818Z,81.57
2023-05-13T18:22:27.115Z,81.69
2023-05-13T18:24:30.330Z,83.23
2023-05-13T18:26:33.359Z,83.58
2023-05-13T18:28:37.869Z,85.60
2023-05-13T18:30:40.974Z,86.11
2023-05-13T18:32:44.137Z,85.20
2023-05-13T18:34:47.301Z,86.93
2023-05-13T18:36:51.914Z,87.22
2023-05-13T18:38:55.346Z,86.08
2023-05-13T18:41:03.007Z,86.48
2023-05-13T18:43:08.628Z,86.90
2023-05-13T18:45:13.214Z,87.08
2023-05-13T18:47:19.445Z,87.13
2023-05-13T18:49:23.085Z,88.72
2023-05-13T18:51:28.985Z,87.25
2023-05-13T18:53:32.161Z,87.84
2023-05-13T18:55:35.668Z,86.74
2023-05-13T18:57:39.401Z,87.50
2023-05-13T18:59:45.361Z,86.98
2023-05-13T19:01:50.201Z,86.74
2023-05-13T19:03:53.551Z,86.81
2023-05-13T19:05:56.702Z,86.96
2023-05-13T19:08:03.243Z,87.43
2023-05-13T19:10:09.024Z,89.13
2023-05-13T19:12:15.054Z,88.82
2023-05-13T19:14:18.129Z,87.89
2023-05-13T19:16:21.217Z,88.10
2023-05-13T19:18:25.749Z,89.52
2023-05-13T19:20:28.861Z,87.79
2023-05-13T19:22:34.373Z,87.06
2023-05-13T19:24:40.156Z,89.08
2023-05-13T19:26:43.246Z,87.45
2023-05-13T19:28:47.293Z,88.39
2023-05-13T19:30:50.407Z,88.27
2023-05-13T19:32:53.628Z,88.18
2023-05-13T19:35:00.516Z,89.89
2023-05-13T19:37:04.989Z,88.34
2023-05-13T19:39:08.168Z,88.17
2023-05-13T19:41:11.395Z,89.33
2023-05-13T19:43:17.427Z,88.35
2023-05-13T19:45:23.197Z,88.56
2023-05-13T19:47:27.649Z,88.88
2023-05-13T19:49:30.814Z,88.71
2023-05-13T19:51:35.342Z,90.41
2023-05-13T19:53:38.423Z,90.95
2023-05-13T19:55:41.727Z,91.05
2023-05-13T19:57:44.851Z,90.42
2023-05-13T19:59:48.014Z,90.47
2023-05-13T20:01:51.206Z,91.07
2023-05-13T20:03:55.409Z,92.45
2023-05-13T20:05:59.262Z,91.01
2023-05-13T20:08:03.965Z,92.02
2023-05-13T20:10:08.582Z,90.67
2023-05-13T20:12:12.274Z,92.21
2023-05-13T20:14:17.133Z,91.25
2023-05-13T20:16:22.314Z,90.94
2023-05-13T20:18:25.779Z,92.61
2023-05-13T20:20:29.028Z,92.24
2023-05-13T20:22:32.198Z,92.99
2023-05-13T20:24:36.860Z,91.90
2023-05-13T20:26:39.966Z,92.33
2023-05-13T20:28:45.109Z,92.84
2023-05-13T20:30:48.261Z,93.62
2023-05-13T20:32:51.548Z,92.04
2023-05-13T20:34:55.230Z,93.48
2023-05-13T20:36:58.430Z,91.42
2023-05-13T20:39:01.612Z,91.89
2023-05-13T20:41:07.182Z,92.59
2023-05-13T20:43:10.322Z,92.35
2023-05-13T20:45:13.811Z,93.47
2023-05-13T20:47:17.146Z,93.22
2023-05-13T20:49:20.236Z,93.50
2023-05-13T20:51:23.386Z,93.35
2023-05-13T20:53:26.588Z,94.45
2023-05-13T20:55:29.707Z,93.21
2023-05-13T20:57:34.147Z,94.48
2023-05-13T20:59:37.840Z,93.47
2023-05-13T21:01:41.459Z,93.33
2023-05-13T21:03:44.669Z,93.71
2023-05-13T21:05:47.765Z,92.72
2023-05-13T21:07:50.896Z,93.50
2023-05-13T21:09:53.982Z,92.38
2023-05-13T21:11:57.050Z,94.27
2023-05-13T21:14:01.486Z,94.22
2023-05-13T21:16:05.287Z,94.18
2023-05-13T21:18:08.551Z,93.87
2023-05-13T21:20:12.884Z,95.23
2023-05-13T21:22:16.544Z,95.26
2023-05-13T21:24:20.304Z,94.92
2023-05-13T21:26:23.421Z,93.82
2023-05-13T21:28:26.480Z,93.91
2023-05-13T21:30:32.118Z,94.01
2023-05-13T21:32:35.203Z,94.60
2023-05-13T21:34:38.276Z,93.98
2023-05-13T21:36:41.325Z,94.46
2023-05-13T21:38:44.410Z,95.58
2023-05-13T21:40:47.505Z,95.17
2023-05-13T21:42:51.135Z,94.64
2023-05-13T21:44:54.297Z,94.54
2023-05-13T21:46:58.811Z,95.17
2023-05-13T21:49:01.961Z,95.28
2023-05-13T21:51:05.423Z,95.07
2023-05-13T21:53:08.541Z,95.38
2023-05-13T21:55:11.631Z,95.78
2023-05-13T21:57:14.606Z,94.66
2023-05-13T21:59:17.721Z,95.69
2023-05-13T22:01:21.224Z,95.65
2023-05-13T22:03:25.829Z,95.78
2023-05-13T22:05:29.207Z,96.16
2023-05-13T22:07:32.396Z,96.44
2023-05-13T22:09:35.628Z,96.27
2023-05-13T22:11:38.757Z,95.69
2023-05-13T22:13:42.129Z,95.93
2023-05-13T22:15:45.113Z,95.66
2023-05-13T22:17:49.970Z,97.09
2023-05-13T22:19:55.222Z,97.00
2023-05-13T22:21:58.195Z,96.12
2023-05-13T22:24:01.290Z,97.09
2023-05-13T22:26:05.143Z,96.62
2023-05-13T22:28:08.316Z,96.79
2023-05-13T22:30:11.854Z,96.51
2023-05-13T22:32:15.037Z,96.41
2023-05-13T22:34:18.110Z,96.47
2023-05-13T22:36:22.541Z,96.13
2023-05-13T22:38:25.637Z,96.14
2023-05-13T22:40:28.934Z,96.68
2023-05-13T22:42:31.956Z,96.66
2023-05-13T22:44:35.116Z,95.56
2023-05-13T22:46:38.464Z,95.90
2023-05-13T22:48:41.517Z,96.82
2023-05-13T22:50:44.691Z,96.52
2023-05-13T22:52:49.131Z,95.37
2023-05-13T22:54:52.298Z,95.96
2023-05-13T22:56:55.362Z,96.53
2023-05-13T22:58:58.390Z,96.28
2023-05-13T23:01:01.356Z,96.38
2023-05-13T23:03:04.805Z,96.22
2023-05-13T23:05:08.460Z,96.39
2023-05-13T23:07:11.880Z,96.23
2023-05-13T23:09:16.288Z,95.63
2023-05-13T23:11:19.390Z,96.09
2023-05-13T23:13:22.444Z,96.85
2023-05-13T23:15:25.573Z,96.76
2023-05-13T23:17:28.634Z,96.43
2023-05-13T23:19:31.736Z,96.00
2023-05-13T23:21:35.231Z,95.83
2023-05-13T23:23:38.219Z,95.53
2023-05-13T23:25:45.747Z,95.43
2023-05-13T23:27:49.361Z,95.87
2023-05-13T23:29:52.387Z,96.38
2023-05-13T23:31:55.676Z,97.11
2023-05-13T23:33:58.707Z,96.40
2023-05-13T23:36:01.788Z,96.17
2023-05-13T23:38:04.853Z,96.29
2023-05-13T23:40:08.931Z,96.41
2023-05-13T23:42:13.316Z,96.37
2023-05-13T23:44:16.309Z,96.71
2023-05-13T23:46:19.481Z,96.32
2023-05-13T23:48:22.596Z,97.41
2023-05-13T23:50:25.712Z,97.63
2023-05-13T23:52:29.152Z,97.01
2023-05-13T23:54:32.175Z,96.78
2023-05-13T23:56:35.507Z,96.73
2023-05-13T23:58:39.861Z,96.45
